createdAt,value
2017-03-30T00:00:22.308Z,60.50
2017-03-30T00:01:20.209Z,60.40
2017-03-30T00:02:17.863Z,60.50
2017-03-30T00:03:15.662Z,60.80
2017-03-30T00:04:13.341Z,60.60
2017-03-30T00:05:11.379Z,60.60
2017-03-30T00:06:09.071Z,60.80
2017-03-30T00:07:06.688Z,61.60
2017-03-30T00:08:04.313Z,62.10
2017-03-30T00:09:02.000Z,62.20
2017-03-30T00:10:00.476Z,62.70
2017-03-30T00:10:59.545Z,63.00
2017-03-30T00:11:57.823Z,63.00
2017-03-30T00:12:55.443Z,62.90
2017-03-30T00:13:53.238Z,62.80
2017-03-30T00:14:50.928Z,62.50
2017-03-30T00:15:48.651Z,62.10
2017-03-30T00:16:46.353Z,62.10
2017-03-30T00:17:44.159Z,61.70
2017-03-30T00:18:41.835Z,61.40
2017-03-30T00:19:39.455Z,61.30
2017-03-30T00:20:37.401Z,61.00
2017-03-30T00:21:35.045Z,61.90
2017-03-30T00:22:32.806Z,62.30
2017-03-30T00:23:30.548Z,62.60
2017-03-30T00:24:28.201Z,62.60
2017-03-30T00:25:26.124Z,63.00
2017-03-30T00:26:23.756Z,63.70
2017-03-30T00:27:21.427Z,63.90
2017-03-30T00:28:19.084Z,63.30
2017-03-30T00:29:16.809Z,62.80
2017-03-30T00:30:15.568Z,63.10
2017-03-30T00:31:13.246Z,63.50
2017-03-30T00:32:11.002Z,62.70
2017-03-30T00:33:08.659Z,62.70
2017-03-30T00:34:06.257Z,63.10
2017-03-30T00:35:04.432Z,63.80
2017-03-30T00:36:04.883Z,63.60
2017-03-30T00:37:03.160Z,63.30
2017-03-30T00:38:00.803Z,63.40
2017-03-30T00:38:58.567Z,62.50
2017-03-30T00:39:56.207Z,62.40
2017-03-30T00:40:54.095Z,62.70
2017-03-30T00:41:51.727Z,62.30
2017-03-30T00:42:49.444Z,62.00
2017-03-30T00:43:47.197Z,62.50
2017-03-30T00:44:45.020Z,62.70
2017-03-30T00:45:43.576Z,62.50
2017-03-30T00:46:41.203Z,62.60
2017-03-30T00:47:38.863Z,62.20
2017-03-30T00:48:36.711Z,62.70
2017-03-30T00:49:34.399Z,62.90
2017-03-30T00:50:32.207Z,63.70
2017-03-30T00:51:29.796Z,64.10
2017-03-30T00:52:27.522Z,63.70
2017-03-30T00:53:25.354Z,63.30
2017-03-30T00:54:23.124Z,63.00
2017-03-30T00:55:21.688Z,63.00
2017-03-30T00:56:20.096Z,63.10
2017-03-30T00:57:18.691Z,62.80
2017-03-30T00:58:16.392Z,62.10
2017-03-30T00:59:14.880Z,62.60
2017-03-30T01:00:12.660Z,64.10
2017-03-30T01:01:10.344Z,64.80
2017-03-30T01:02:07.977Z,65.00
2017-03-30T01:03:05.683Z,65.30
2017-03-30T01:04:03.350Z,65.50
2017-03-30T01:05:00.988Z,65.20
2017-03-30T01:05:59.315Z,65.60
2017-03-30T01:06:57.107Z,65.40
2017-03-30T01:07:55.576Z,64.80
2017-03-30T01:08:53.210Z,65.10
2017-03-30T01:09:50.911Z,65.30
2017-03-30T01:10:48.596Z,64.80
2017-03-30T01:11:46.494Z,64.60
2017-03-30T01:12:44.372Z,64.80
2017-03-30T01:13:41.963Z,64.00
2017-03-30T01:14:39.602Z,64.00
2017-03-30T01:15:37.521Z,63.70
2017-03-30T01:16:35.175Z,63.20
2017-03-30T01:17:32.822Z,63.60
2017-03-30T01:18:30.648Z,63.70
2017-03-30T01:19:28.292Z,63.20
2017-03-30T01:20:26.003Z,63.60
2017-03-30T01:21:23.668Z,64.00
2017-03-30T01:22:21.364Z,64.00
2017-03-30T01:23:19.271Z,64.40
2017-03-30T01:24:16.903Z,64.70
2017-03-30T01:25:14.839Z,65.20
2017-03-30T01:26:12.877Z,64.90
2017-03-30T01:27:13.600Z,64.70
2017-03-30T01:28:11.232Z,64.30
2017-03-30T01:29:08.940Z,63.90
2017-03-30T01:30:07.249Z,63.60
2017-03-30T01:31:04.888Z,63.10
2017-03-30T01:32:02.606Z,62.90
2017-03-30T01:33:00.229Z,63.30
2017-03-30T01:33:57.837Z,63.10
2017-03-30T01:34:55.648Z,63.70
2017-03-30T01:35:53.771Z,63.90
2017-03-30T01:36:51.435Z,63.90
2017-03-30T01:37:49.048Z,63.90
2017-03-30T01:38:46.659Z,64.20
2017-03-30T01:39:44.324Z,64.10
2017-03-30T01:40:42.044Z,63.60
2017-03-30T01:41:39.691Z,63.40
2017-03-30T01:42:37.403Z,63.60
2017-03-30T01:43:35.012Z,63.90
2017-03-30T01:44:32.720Z,63.30
2017-03-30T01:45:31.108Z,62.80
2017-03-30T01:46:29.527Z,62.40
2017-03-30T01:47:27.225Z,62.50
2017-03-30T01:48:24.908Z,62.40
2017-03-30T01:49:22.789Z,62.10
2017-03-30T01:50:20.564Z,62.30
2017-03-30T01:51:18.200Z,62.40
2017-03-30T01:52:15.843Z,62.50
2017-03-30T01:53:14.000Z,62.30
2017-03-30T01:54:11.724Z,62.20
2017-03-30T01:55:09.714Z,62.30
2017-03-30T01:56:07.540Z,62.30
2017-03-30T01:57:05.377Z,62.00
2017-03-30T01:58:03.116Z,62.20
2017-03-30T01:59:00.884Z,62.10
2017-03-30T01:59:58.692Z,62.70
2017-03-30T02:00:56.781Z,63.40
2017-03-30T02:01:55.505Z,63.60
2017-03-30T02:02:53.311Z,63.50
2017-03-30T02:03:50.920Z,63.70
2017-03-30T02:04:48.684Z,63.40
2017-03-30T02:05:47.013Z,63.30
2017-03-30T02:06:45.708Z,62.70
2017-03-30T02:07:43.840Z,62.60
2017-03-30T02:08:41.463Z,62.20
2017-03-30T02:09:39.300Z,62.30
2017-03-30T02:10:37.086Z,62.90
2017-03-30T02:11:35.592Z,63.00
2017-03-30T02:12:33.823Z,62.90
2017-03-30T02:13:31.517Z,63.00
2017-03-30T02:14:29.169Z,63.40
2017-03-30T02:15:26.839Z,63.40
2017-03-30T02:16:24.460Z,63.10
2017-03-30T02:17:22.351Z,63.00
2017-03-30T02:18:20.008Z,63.10
2017-03-30T02:19:17.644Z,63.10
2017-03-30T02:20:15.790Z,62.90
2017-03-30T02:21:14.108Z,62.70
2017-03-30T02:22:12.023Z,62.40
2017-03-30T02:23:13.317Z,62.40
2017-03-30T02:24:11.135Z,62.80
2017-03-30T02:25:08.872Z,62.90
2017-03-30T02:26:06.572Z,62.90
2017-03-30T02:27:04.200Z,62.60
2017-03-30T02:28:01.840Z,63.00
2017-03-30T02:28:59.460Z,62.60
2017-03-30T02:29:57.196Z,62.30
2017-03-30T02:30:55.091Z,62.10
2017-03-30T02:31:53.420Z,62.10
2017-03-30T02:32:51.216Z,62.30
2017-03-30T02:33:49.036Z,62.40
2017-03-30T02:34:46.715Z,62.80
2017-03-30T02:35:44.436Z,63.30
2017-03-30T02:36:42.271Z,63.60
2017-03-30T02:38:10.975Z,63.70
2017-03-30T02:39:10.585Z,63.50
2017-03-30T02:40:08.584Z,63.50
2017-03-30T02:41:06.685Z,64.60
2017-03-30T02:42:04.504Z,65.60
2017-03-30T02:47:14.117Z,65.80
2017-03-30T02:48:11.923Z,65.60
2017-03-30T02:49:09.585Z,66.00
2017-03-30T02:51:33.988Z,66.00
2017-03-30T02:52:31.644Z,65.90
2017-03-30T02:53:29.260Z,65.50
2017-03-30T02:55:36.359Z,66.30
2017-03-30T02:56:33.959Z,66.60
2017-03-30T02:57:31.717Z,66.80
2017-03-30T02:58:30.083Z,66.80
2017-03-30T02:59:27.720Z,66.60
2017-03-30T03:00:25.485Z,65.90
2017-03-30T03:01:23.223Z,65.80
2017-03-30T03:02:20.963Z,65.90
2017-03-30T03:03:19.360Z,65.70
2017-03-30T03:04:17.531Z,64.70
2017-03-30T03:05:15.676Z,65.20
2017-03-30T03:06:13.995Z,65.70
2017-03-30T03:07:11.663Z,65.50
2017-03-30T03:08:10.336Z,65.30
2017-03-30T03:09:08.155Z,65.60
2017-03-30T03:10:06.613Z,65.60
2017-03-30T03:11:04.277Z,65.30
2017-03-30T03:12:01.927Z,65.10
2017-03-30T03:12:59.533Z,65.00
2017-03-30T03:13:57.214Z,65.00
2017-03-30T03:14:54.810Z,64.60
2017-03-30T03:15:53.619Z,64.20
2017-03-30T03:16:51.260Z,64.10
2017-03-30T03:17:48.895Z,64.00
2017-03-30T03:18:46.509Z,63.90
2017-03-30T03:19:44.363Z,63.70
2017-03-30T03:20:42.028Z,63.60
2017-03-30T03:21:39.643Z,63.40
2017-03-30T03:22:37.295Z,63.30
2017-03-30T03:23:34.972Z,63.70
2017-03-30T03:24:32.608Z,63.80
2017-03-30T03:25:30.745Z,64.10
2017-03-30T03:26:28.384Z,64.00
2017-03-30T03:27:26.312Z,64.00
2017-03-30T03:28:24.125Z,63.70
2017-03-30T03:29:22.840Z,63.50
2017-03-30T03:30:20.703Z,63.50
2017-03-30T03:31:18.405Z,63.50
2017-03-30T03:32:16.024Z,63.30
2017-03-30T03:33:13.651Z,63.40
2017-03-30T03:34:12.025Z,63.40
2017-03-30T03:35:10.483Z,63.20
2017-03-30T03:36:08.293Z,63.20
2017-03-30T03:37:06.132Z,63.50
2017-03-30T03:38:03.971Z,63.40
2017-03-30T03:39:01.703Z,63.80
2017-03-30T03:39:59.455Z,63.30
2017-03-30T03:40:57.323Z,63.30
2017-03-30T03:41:54.967Z,63.50
2017-03-30T03:42:52.785Z,63.60
2017-03-30T03:43:50.576Z,63.40
2017-03-30T03:44:48.340Z,63.10
2017-03-30T03:45:47.005Z,63.00
2017-03-30T03:46:44.759Z,62.70
2017-03-30T03:47:42.500Z,62.90
2017-03-30T03:48:40.125Z,63.00
2017-03-30T03:49:37.748Z,63.00
2017-03-30T03:50:35.467Z,63.40
2017-03-30T03:51:33.183Z,63.50
2017-03-30T03:52:30.859Z,63.50
2017-03-30T03:53:28.675Z,63.30
2017-03-30T03:54:26.276Z,63.80
2017-03-30T03:55:24.180Z,63.60
2017-03-30T03:56:21.868Z,63.60
2017-03-30T03:57:19.744Z,64.10
2017-03-30T03:58:17.428Z,64.60
2017-03-30T03:59:15.049Z,64.40
2017-03-30T04:00:12.887Z,64.20
2017-03-30T04:01:10.621Z,64.70
2017-03-30T04:02:08.328Z,64.80
2017-03-30T04:03:05.996Z,64.70
2017-03-30T04:04:03.640Z,64.40
2017-03-30T04:05:01.755Z,64.20
2017-03-30T04:05:59.463Z,64.30
2017-03-30T04:06:58.091Z,64.40
2017-03-30T04:07:56.055Z,64.40
2017-03-30T04:08:53.636Z,64.50
2017-03-30T04:09:51.335Z,64.30
2017-03-30T04:10:49.072Z,64.40
2017-03-30T04:11:46.671Z,64.00
2017-03-30T04:12:45.239Z,64.10
2017-03-30T04:13:42.920Z,64.50
2017-03-30T04:14:41.456Z,64.80
2017-03-30T04:15:39.401Z,65.20
2017-03-30T04:16:40.159Z,65.40
2017-03-30T04:17:37.908Z,65.20
2017-03-30T04:18:35.543Z,65.00
2017-03-30T04:19:33.182Z,65.40
2017-03-30T04:20:31.042Z,65.10
2017-03-30T04:21:30.014Z,65.40
2017-03-30T04:22:27.851Z,65.10
2017-03-30T04:23:25.476Z,65.00
2017-03-30T04:24:23.211Z,64.80
2017-03-30T04:25:20.972Z,64.70
2017-03-30T04:26:18.648Z,64.40
2017-03-30T04:27:16.280Z,64.20
2017-03-30T04:28:14.905Z,64.00
2017-03-30T04:29:12.744Z,64.10
2017-03-30T04:30:10.867Z,63.60
2017-03-30T04:31:09.201Z,63.70
2017-03-30T04:32:07.075Z,64.10
2017-03-30T04:33:04.687Z,64.50
2017-03-30T04:34:02.301Z,64.40
2017-03-30T04:34:59.919Z,64.30
2017-03-30T04:35:58.252Z,64.20
2017-03-30T04:36:56.063Z,64.00
2017-03-30T04:37:53.808Z,63.80
2017-03-30T04:38:51.715Z,63.80
2017-03-30T04:39:49.283Z,63.50
2017-03-30T04:40:46.940Z,63.40
2017-03-30T04:41:44.787Z,63.50
2017-03-30T04:42:42.372Z,63.30
2017-03-30T04:43:40.132Z,63.40
2017-03-30T04:44:37.962Z,63.60
2017-03-30T04:45:35.632Z,63.40
2017-03-30T04:46:33.932Z,63.60
2017-03-30T04:47:31.560Z,63.50
2017-03-30T04:48:29.393Z,63.70
2017-03-30T04:49:26.995Z,64.00
2017-03-30T04:50:24.635Z,64.00
2017-03-30T04:51:23.952Z,64.50
2017-03-30T04:52:21.565Z,65.30
2017-03-30T04:53:19.562Z,65.40
2017-03-30T04:54:17.128Z,65.60
2017-03-30T04:55:15.176Z,65.20
2017-03-30T04:56:12.796Z,65.20
2017-03-30T04:57:10.440Z,64.80
2017-03-30T04:58:08.100Z,64.90
2017-03-30T04:59:05.899Z,64.50
2017-03-30T05:00:03.636Z,65.40
2017-03-30T05:01:01.573Z,65.40
2017-03-30T05:01:59.495Z,65.80
2017-03-30T05:02:57.144Z,65.30
2017-03-30T05:03:54.889Z,65.80
2017-03-30T05:04:52.721Z,65.90
2017-03-30T05:05:50.440Z,66.60
2017-03-30T05:06:48.083Z,66.60
2017-03-30T05:07:46.183Z,66.50
2017-03-30T05:08:43.879Z,65.90
2017-03-30T05:09:41.496Z,66.00
2017-03-30T05:10:39.795Z,66.10
2017-03-30T05:11:37.452Z,65.60
2017-03-30T05:12:35.032Z,64.90
2017-03-30T05:13:32.799Z,65.10
2017-03-30T05:14:30.401Z,65.20
2017-03-30T05:15:28.617Z,65.40
2017-03-30T05:16:26.297Z,65.40
2017-03-30T05:17:24.135Z,65.30
2017-03-30T05:18:21.809Z,65.40
2017-03-30T05:19:19.419Z,65.30
2017-03-30T05:20:17.309Z,64.60
2017-03-30T05:21:15.127Z,64.30
2017-03-30T05:22:12.962Z,64.20
2017-03-30T05:23:10.658Z,63.60
2017-03-30T05:24:08.319Z,63.30
2017-03-30T05:25:06.068Z,63.30
2017-03-30T05:26:03.856Z,62.80
2017-03-30T05:27:01.439Z,63.00
2017-03-30T05:27:59.027Z,62.90
2017-03-30T05:28:56.655Z,63.00
2017-03-30T05:29:56.020Z,63.00
2017-03-30T05:30:54.280Z,63.60
2017-03-30T05:31:52.520Z,64.00
2017-03-30T05:32:50.161Z,64.50
2017-03-30T05:33:48.052Z,64.90
2017-03-30T05:34:45.871Z,65.40
2017-03-30T05:35:44.046Z,65.50
2017-03-30T05:36:42.888Z,65.20
2017-03-30T05:37:40.639Z,64.90
2017-03-30T05:38:41.393Z,65.10
2017-03-30T05:39:39.168Z,65.00
2017-03-30T05:40:37.547Z,64.40
2017-03-30T05:41:36.076Z,64.40
2017-03-30T05:42:34.320Z,64.60
2017-03-30T05:43:31.931Z,64.90
2017-03-30T05:44:29.573Z,65.10
2017-03-30T05:45:27.799Z,65.10
2017-03-30T05:46:26.420Z,65.60
2017-03-30T05:47:25.064Z,65.90
2017-03-30T05:48:23.154Z,66.20
2017-03-30T05:49:21.119Z,65.60
2017-03-30T05:50:18.887Z,65.90
2017-03-30T05:51:16.697Z,66.20
2017-03-30T05:52:14.505Z,66.90
2017-03-30T05:53:12.213Z,68.00
2017-03-30T05:54:09.996Z,68.10
2017-03-30T05:55:09.021Z,68.20
2017-03-30T05:56:06.664Z,68.80
2017-03-30T05:57:04.281Z,68.90
2017-03-30T05:58:02.002Z,69.00
2017-03-30T05:58:59.588Z,69.10
2017-03-30T05:59:57.200Z,68.10
2017-03-30T06:00:55.265Z,67.40
2017-03-30T06:01:52.893Z,67.80
2017-03-30T06:02:50.515Z,67.70
2017-03-30T06:03:48.372Z,67.40
2017-03-30T06:04:47.108Z,67.00
2017-03-30T06:05:44.860Z,66.30
2017-03-30T06:06:42.568Z,66.40
2017-03-30T06:07:40.178Z,65.80
2017-03-30T06:08:37.788Z,64.90
2017-03-30T06:09:35.379Z,64.90
2017-03-30T06:10:34.371Z,65.30
2017-03-30T06:11:31.935Z,64.40
2017-03-30T06:12:29.543Z,64.90
2017-03-30T06:13:27.181Z,65.50
2017-03-30T06:14:24.788Z,65.90
2017-03-30T06:15:22.509Z,66.00
2017-03-30T06:16:20.156Z,66.50
2017-03-30T06:17:17.952Z,66.80
2017-03-30T06:18:16.002Z,66.10
2017-03-30T06:19:13.687Z,65.30
2017-03-30T06:20:12.379Z,65.30
2017-03-30T06:21:10.217Z,65.60
2017-03-30T06:22:08.391Z,65.40
2017-03-30T06:23:06.368Z,65.00
2017-03-30T06:24:04.005Z,64.80
2017-03-30T06:25:01.685Z,64.00
2017-03-30T06:26:00.501Z,63.30
2017-03-30T06:26:58.227Z,63.10
2017-03-30T06:27:57.377Z,62.30
2017-03-30T06:28:56.352Z,61.90
2017-03-30T06:29:54.120Z,61.90
2017-03-30T06:30:52.376Z,61.90
2017-03-30T06:31:49.987Z,61.60
2017-03-30T06:32:48.236Z,61.40
2017-03-30T06:33:48.027Z,61.10
2017-03-30T06:34:45.798Z,61.20
2017-03-30T06:35:43.523Z,61.00
2017-03-30T06:36:42.104Z,60.70
2017-03-30T06:37:39.960Z,60.50
2017-03-30T06:38:37.763Z,61.00
2017-03-30T06:39:35.947Z,61.20
2017-03-30T06:40:33.675Z,62.00
2017-03-30T06:41:32.114Z,62.80
2017-03-30T06:42:29.778Z,63.70
2017-03-30T06:43:27.532Z,63.60
2017-03-30T06:44:25.311Z,62.80
2017-03-30T06:45:23.485Z,62.20
2017-03-30T06:46:21.179Z,61.60
2017-03-30T06:47:18.795Z,61.30
2017-03-30T06:48:16.678Z,61.40
2017-03-30T06:49:14.303Z,61.50
2017-03-30T06:50:11.983Z,61.00
2017-03-30T06:51:09.681Z,60.70
2017-03-30T06:52:07.308Z,60.80
2017-03-30T06:53:05.773Z,61.30
2017-03-30T06:54:03.731Z,61.30
2017-03-30T06:55:01.360Z,60.90
2017-03-30T06:55:59.760Z,60.70
2017-03-30T06:56:58.559Z,61.40
2017-03-30T06:57:56.196Z,61.00
2017-03-30T06:58:53.932Z,60.80
2017-03-30T06:59:51.566Z,62.90
2017-03-30T07:00:49.512Z,61.90
2017-03-30T07:01:47.923Z,62.10
2017-03-30T07:02:45.759Z,61.50
2017-03-30T07:03:43.375Z,60.80
2017-03-30T07:04:41.153Z,62.50
2017-03-30T07:05:39.060Z,61.20
2017-03-30T07:06:36.787Z,60.90
2017-03-30T07:07:34.826Z,61.60
2017-03-30T07:08:32.572Z,62.20
2017-03-30T07:09:30.228Z,63.20
2017-03-30T07:10:28.232Z,62.20
2017-03-30T07:11:25.943Z,61.70
2017-03-30T07:12:24.813Z,61.00
2017-03-30T07:13:22.607Z,61.30
2017-03-30T07:14:20.351Z,61.00
2017-03-30T07:15:18.232Z,60.30
2017-03-30T07:16:16.249Z,61.20
2017-03-30T07:17:13.909Z,61.10
2017-03-30T07:18:12.242Z,60.60
2017-03-30T07:19:09.937Z,61.30
2017-03-30T07:20:07.812Z,61.70
2017-03-30T07:21:06.409Z,61.20
2017-03-30T07:22:04.220Z,60.80
2017-03-30T07:23:02.093Z,60.50
2017-03-30T07:23:59.918Z,60.30
2017-03-30T07:24:57.543Z,61.20
2017-03-30T07:25:55.704Z,61.50
2017-03-30T07:26:54.172Z,61.20
2017-03-30T07:27:52.051Z,61.50
2017-03-30T07:28:49.679Z,60.60
2017-03-30T07:29:47.305Z,60.50
2017-03-30T07:30:45.008Z,60.50
2017-03-30T07:31:43.255Z,60.00
2017-03-30T07:32:40.932Z,59.90
2017-03-30T07:33:38.571Z,59.20
2017-03-30T07:34:36.200Z,59.70
2017-03-30T07:35:33.896Z,59.60
2017-03-30T07:36:31.524Z,59.30
2017-03-30T07:37:29.360Z,59.50
2017-03-30T07:38:26.968Z,58.60
2017-03-30T07:39:24.593Z,58.50
2017-03-30T07:40:22.767Z,59.40
2017-03-30T07:41:20.560Z,59.20
2017-03-30T07:42:18.469Z,60.10
2017-03-30T07:43:19.744Z,59.30
2017-03-30T07:44:17.584Z,58.50
2017-03-30T07:45:15.580Z,58.20
2017-03-30T07:46:13.400Z,58.60
2017-03-30T07:47:11.056Z,58.90
2017-03-30T07:48:09.244Z,58.60
2017-03-30T07:49:06.923Z,59.20
2017-03-30T07:50:05.145Z,58.50
2017-03-30T07:51:03.453Z,58.30
2017-03-30T07:52:01.125Z,58.10
2017-03-30T07:52:59.218Z,58.70
2017-03-30T07:53:56.823Z,58.20
2017-03-30T07:54:54.625Z,58.50
2017-03-30T07:55:52.402Z,58.20
2017-03-30T07:56:50.388Z,59.50
2017-03-30T07:57:48.752Z,58.50
2017-03-30T07:58:46.389Z,57.80
2017-03-30T07:59:44.000Z,58.70
2017-03-30T08:00:42.023Z,58.50
2017-03-30T08:01:39.640Z,58.00
2017-03-30T08:02:37.275Z,58.00
2017-03-30T08:03:34.920Z,57.70
2017-03-30T08:04:32.707Z,58.60
2017-03-30T08:05:30.448Z,57.80
2017-03-30T08:06:28.616Z,57.40
2017-03-30T08:07:26.839Z,56.60
2017-03-30T08:08:24.664Z,57.90
2017-03-30T08:09:22.468Z,57.70
2017-03-30T08:10:20.244Z,56.60
2017-03-30T08:11:17.854Z,56.70
2017-03-30T08:12:15.500Z,56.20
2017-03-30T08:13:14.188Z,55.20
2017-03-30T08:14:12.552Z,55.70
2017-03-30T08:15:10.325Z,55.60
2017-03-30T08:16:07.987Z,55.70
2017-03-30T08:17:05.831Z,56.70
2017-03-30T08:18:03.508Z,56.40
2017-03-30T08:19:01.310Z,56.70
2017-03-30T08:19:58.923Z,56.00
2017-03-30T08:20:56.900Z,56.00
2017-03-30T08:21:54.500Z,54.40
2017-03-30T08:22:52.188Z,54.40
2017-03-30T08:23:49.824Z,53.90
2017-03-30T08:24:47.563Z,53.90
2017-03-30T08:25:45.893Z,53.80
2017-03-30T08:26:44.157Z,53.30
2017-03-30T08:27:41.739Z,54.30
2017-03-30T08:28:39.423Z,54.80
2017-03-30T08:29:37.340Z,54.30
2017-03-30T08:30:35.460Z,54.00
2017-03-30T08:31:33.387Z,54.50
2017-03-30T08:32:31.050Z,55.10
2017-03-30T08:33:28.671Z,55.40
2017-03-30T08:34:26.304Z,54.80
2017-03-30T08:35:24.176Z,54.80
2017-03-30T08:36:22.041Z,53.90
2017-03-30T08:37:19.792Z,54.00
2017-03-30T08:38:17.423Z,54.60
2017-03-30T08:39:15.139Z,54.70
2017-03-30T08:40:13.600Z,53.90
2017-03-30T08:41:11.227Z,52.70
2017-03-30T08:42:08.903Z,53.10
2017-03-30T08:43:06.812Z,52.60
2017-03-30T08:44:04.415Z,53.30
2017-03-30T08:45:04.020Z,52.80
2017-03-30T08:46:01.767Z,52.70
2017-03-30T08:46:59.375Z,51.20
2017-03-30T08:47:57.285Z,51.90
2017-03-30T08:48:55.083Z,52.50
2017-03-30T08:49:52.719Z,52.60
2017-03-30T08:50:50.439Z,52.40
2017-03-30T08:51:48.071Z,52.20
2017-03-30T08:52:45.752Z,52.40
2017-03-30T08:53:43.912Z,52.00
2017-03-30T08:54:41.552Z,51.70
2017-03-30T08:55:39.460Z,51.60
2017-03-30T08:56:37.424Z,52.50
2017-03-30T08:57:35.071Z,52.80
2017-03-30T08:58:32.805Z,51.80
2017-03-30T08:59:30.919Z,51.90
2017-03-30T09:00:28.563Z,51.90
2017-03-30T09:01:26.232Z,52.30
2017-03-30T09:02:24.101Z,51.10
2017-03-30T09:03:21.790Z,51.10
2017-03-30T09:04:19.429Z,50.50
2017-03-30T09:05:17.564Z,51.10
2017-03-30T09:06:15.268Z,49.50
2017-03-30T09:07:12.884Z,50.30
2017-03-30T09:08:10.564Z,52.20
2017-03-30T09:09:08.413Z,50.70
2017-03-30T09:10:06.404Z,52.10
2017-03-30T09:11:04.144Z,51.60
2017-03-30T09:12:01.763Z,50.90
2017-03-30T09:12:59.729Z,50.40
2017-03-30T09:13:57.403Z,50.50
2017-03-30T09:14:55.092Z,50.20
2017-03-30T09:15:52.988Z,50.10
2017-03-30T09:16:51.140Z,49.80
2017-03-30T09:17:48.732Z,49.20
2017-03-30T09:18:46.416Z,49.10
2017-03-30T09:19:44.075Z,49.10
2017-03-30T09:20:41.798Z,49.40
2017-03-30T09:21:39.384Z,48.70
2017-03-30T09:22:37.264Z,50.00
2017-03-30T09:23:35.170Z,50.00
2017-03-30T09:24:32.805Z,50.00
2017-03-30T09:25:30.600Z,49.60
2017-03-30T09:26:28.411Z,48.80
2017-03-30T09:27:26.061Z,48.80
2017-03-30T09:28:23.743Z,49.40
2017-03-30T09:29:21.396Z,49.70
2017-03-30T09:30:19.400Z,49.10
2017-03-30T09:31:17.184Z,48.80
2017-03-30T09:32:14.828Z,49.00
2017-03-30T09:33:12.437Z,48.50
2017-03-30T09:34:10.084Z,49.30
2017-03-30T09:35:08.404Z,47.70
2017-03-30T09:36:06.100Z,47.60
2017-03-30T09:37:03.768Z,48.00
2017-03-30T09:38:01.567Z,47.80
2017-03-30T09:38:59.222Z,47.60
2017-03-30T09:39:56.827Z,46.90
2017-03-30T09:40:54.692Z,47.00
2017-03-30T09:41:52.476Z,46.90
2017-03-30T09:42:50.302Z,47.50
2017-03-30T09:43:47.949Z,47.00
2017-03-30T09:44:45.627Z,47.30
2017-03-30T09:45:43.659Z,47.10
2017-03-30T09:46:42.434Z,46.20
2017-03-30T09:47:40.141Z,46.50
2017-03-30T09:48:37.880Z,46.70
2017-03-30T09:49:35.737Z,46.20
2017-03-30T09:50:33.480Z,46.50
2017-03-30T09:51:31.564Z,45.90
2017-03-30T09:52:29.391Z,46.30
2017-03-30T09:53:27.123Z,47.00
2017-03-30T09:54:24.736Z,46.10
2017-03-30T09:55:22.711Z,46.50
2017-03-30T09:56:20.631Z,46.30
2017-03-30T09:57:18.317Z,45.90
2017-03-30T09:58:15.952Z,44.60
2017-03-30T09:59:13.891Z,45.00
2017-03-30T10:00:11.896Z,45.40
2017-03-30T10:01:10.105Z,44.60
2017-03-30T10:02:07.754Z,46.30
2017-03-30T10:03:05.401Z,46.20
2017-03-30T10:04:03.150Z,45.40
2017-03-30T10:05:01.176Z,44.30
2017-03-30T10:05:58.871Z,45.00
2017-03-30T10:06:56.645Z,44.40
2017-03-30T10:07:54.363Z,43.80
2017-03-30T10:08:51.995Z,44.00
2017-03-30T10:09:49.648Z,44.00
2017-03-30T10:10:47.696Z,44.80
2017-03-30T10:11:45.377Z,43.50
2017-03-30T10:12:43.264Z,43.50
2017-03-30T10:13:41.116Z,42.00
2017-03-30T10:14:39.047Z,42.00
2017-03-30T10:15:36.751Z,41.70
2017-03-30T10:16:34.692Z,41.70
2017-03-30T10:17:32.334Z,41.30
2017-03-30T10:18:29.969Z,41.20
2017-03-30T10:19:27.608Z,41.00
2017-03-30T10:20:25.360Z,40.70
2017-03-30T10:21:23.247Z,41.40
2017-03-30T10:22:21.035Z,40.60
2017-03-30T10:23:18.927Z,40.00
2017-03-30T10:24:17.332Z,39.90
2017-03-30T10:25:15.037Z,39.00
2017-03-30T10:26:12.764Z,39.90
2017-03-30T10:27:10.372Z,40.50
2017-03-30T10:28:08.194Z,39.40
2017-03-30T10:29:05.803Z,39.20
2017-03-30T10:30:03.584Z,40.00
2017-03-30T10:31:02.311Z,39.20
2017-03-30T10:31:59.932Z,39.10
2017-03-30T10:32:58.358Z,40.30
2017-03-30T10:33:56.829Z,39.60
2017-03-30T10:34:54.457Z,39.30
2017-03-30T10:35:52.188Z,37.80
2017-03-30T10:36:49.860Z,36.10
2017-03-30T10:37:47.607Z,34.40
2017-03-30T10:38:45.294Z,33.00
2017-03-30T10:39:43.896Z,30.50
2017-03-30T10:40:42.639Z,28.90
2017-03-30T10:41:41.093Z,28.20
2017-03-30T10:42:38.711Z,28.10
2017-03-30T10:43:36.329Z,25.80
2017-03-30T10:44:33.968Z,25.50
2017-03-30T10:45:32.161Z,25.40
2017-03-30T10:46:29.807Z,25.40
2017-03-30T10:47:27.473Z,24.30
2017-03-30T10:48:25.352Z,23.90
2017-03-30T10:49:23.134Z,21.90
2017-03-30T10:50:21.111Z,22.30
2017-03-30T10:51:18.713Z,21.60
2017-03-30T10:52:17.084Z,21.60
2017-03-30T10:53:14.693Z,21.60
2017-03-30T10:54:12.355Z,21.50
2017-03-30T10:55:10.525Z,20.60
2017-03-30T10:56:08.213Z,19.10
2017-03-30T10:57:05.880Z,19.20
2017-03-30T10:58:03.558Z,18.70
2017-03-30T10:59:01.176Z,18.50
2017-03-30T10:59:58.792Z,17.80
2017-03-30T11:00:56.820Z,17.70
2017-03-30T11:01:54.485Z,17.50
2017-03-30T11:02:52.140Z,17.40
2017-03-30T11:03:49.777Z,16.20
2017-03-30T11:04:47.399Z,16.10
2017-03-30T11:05:45.072Z,15.30
2017-03-30T11:06:43.161Z,14.80
2017-03-30T11:07:40.819Z,14.60
2017-03-30T11:08:38.427Z,14.20
2017-03-30T11:09:36.113Z,14.40
2017-03-30T11:10:33.791Z,14.20
2017-03-30T11:11:31.415Z,14.20
2017-03-30T11:12:29.484Z,14.40
2017-03-30T11:13:27.131Z,15.00
2017-03-30T11:14:25.004Z,15.00
2017-03-30T11:15:23.148Z,14.80
2017-03-30T11:16:20.826Z,14.90
2017-03-30T11:17:18.509Z,14.70
2017-03-30T11:18:16.140Z,14.40
2017-03-30T11:19:14.779Z,14.40
2017-03-30T11:20:12.529Z,14.40
2017-03-30T11:21:10.161Z,14.40
2017-03-30T11:22:07.860Z,14.70
2017-03-30T11:23:05.516Z,14.90
2017-03-30T11:24:03.296Z,14.40
2017-03-30T11:25:01.355Z,14.40
2017-03-30T11:25:59.261Z,13.80
2017-03-30T11:26:56.891Z,13.40
2017-03-30T11:27:54.499Z,13.00
2017-03-30T11:28:52.127Z,12.90
2017-03-30T11:29:49.762Z,12.70
2017-03-30T11:30:47.736Z,12.70
2017-03-30T11:31:45.404Z,12.30
2017-03-30T11:32:43.061Z,12.30
2017-03-30T11:33:40.673Z,12.40
2017-03-30T11:34:38.284Z,11.40
2017-03-30T11:35:36.152Z,11.50
2017-03-30T11:36:33.823Z,11.50
2017-03-30T11:37:31.463Z,11.30
2017-03-30T11:38:29.095Z,10.40
2017-03-30T11:39:26.779Z,10.00
2017-03-30T11:40:24.470Z,10.10
2017-03-30T11:41:22.176Z,10.10
2017-03-30T11:42:20.128Z,10.00
2017-03-30T11:43:17.803Z,10.30
2017-03-30T11:44:15.467Z,10.10
2017-03-30T11:45:13.213Z,10.00
2017-03-30T11:46:11.124Z,9.70
2017-03-30T11:47:08.777Z,9.30
2017-03-30T11:48:06.407Z,9.40
2017-03-30T11:49:04.035Z,9.20
2017-03-30T11:50:02.034Z,9.90
2017-03-30T11:50:59.699Z,9.60
2017-03-30T11:51:57.392Z,10.00
2017-03-30T11:52:55.986Z,10.00
2017-03-30T11:53:53.908Z,9.50
2017-03-30T11:54:51.581Z,9.90
2017-03-30T11:55:49.840Z,9.60
2017-03-30T11:56:48.434Z,9.30
2017-03-30T11:57:46.049Z,9.90
2017-03-30T11:58:43.717Z,9.80
2017-03-30T11:59:41.379Z,9.10
2017-03-30T12:00:39.161Z,8.90
2017-03-30T12:01:37.180Z,8.70
2017-03-30T12:02:34.810Z,9.00
2017-03-30T12:03:32.447Z,8.60
2017-03-30T12:04:30.707Z,8.50
2017-03-30T12:05:28.433Z,8.70
2017-03-30T12:06:26.103Z,8.90
2017-03-30T12:07:24.122Z,9.00
2017-03-30T12:08:22.733Z,8.80
2017-03-30T12:09:21.388Z,8.20
2017-03-30T12:10:19.102Z,9.00
2017-03-30T12:11:16.749Z,9.40
2017-03-30T12:12:14.423Z,9.10
2017-03-30T12:13:12.493Z,8.90
2017-03-30T12:14:10.141Z,9.10
2017-03-30T12:15:07.795Z,8.50
2017-03-30T12:16:05.500Z,8.80
2017-03-30T12:17:03.187Z,9.10
2017-03-30T12:18:00.899Z,8.90
2017-03-30T12:18:59.004Z,8.90
2017-03-30T12:19:56.636Z,8.50
2017-03-30T12:20:54.355Z,8.00
2017-03-30T12:21:52.941Z,7.90
2017-03-30T12:22:50.615Z,8.30
2017-03-30T12:23:48.252Z,8.60
2017-03-30T12:24:46.813Z,8.90
2017-03-30T12:25:45.171Z,8.40
2017-03-30T12:26:42.813Z,8.50
2017-03-30T12:27:40.488Z,8.60
2017-03-30T12:28:38.220Z,8.60
2017-03-30T12:29:35.909Z,9.00
2017-03-30T12:30:33.936Z,8.50
2017-03-30T12:31:33.862Z,8.00
2017-03-30T12:32:32.359Z,8.20
2017-03-30T12:33:31.090Z,8.40
2017-03-30T12:34:35.637Z,8.40